Time;durP1;ratioP1;P1;durP2;ratioP2;P2;SDS_P1;SDS_P2;PMS_P1;PMS_P2;Temp;Humidity;BMP_temperature;BMP_pressure;BME280_temperature;BME280_humidity;BME280_pressure;Samples;Min_cycle;Max_cycle;Signal;HPM_P1;HPM_P2
2023/05/22 00:02:11;;;;;;;21.10;10.43;;;13.80;99.90;;;;;;5051792;28;20224;-81
2023/05/22 00:04:40;;;;;;;16.43;9.73;;;13.80;99.90;;;;;;5052393;28;20198;-82
2023/05/22 00:07:07;;;;;;;20.00;10.43;;;13.70;99.90;;;;;;5052926;28;20288;-82
2023/05/22 00:09:33;;;;;;;19.83;10.60;;;13.70;99.90;;;;;;5051832;28;20222;-81
2023/05/22 00:12:00;;;;;;;20.67;10.87;;;13.70;99.90;;;;;;5052703;28;20209;-82
2023/05/22 00:14:27;;;;;;;25.17;11.97;;;13.70;99.90;;;;;;5053050;28;20205;-82
2023/05/22 00:16:57;;;;;;;19.90;10.80;;;13.70;99.90;;;;;;5051964;28;20206;-82
2023/05/22 00:19:23;;;;;;;21.33;10.90;;;13.70;99.90;;;;;;5052309;28;20197;-82
2023/05/22 00:21:53;;;;;;;16.43;10.53;;;13.70;99.90;;;;;;5035229;28;20194;-82
2023/05/22 00:24:20;;;;;;;18.90;12.00;;;13.70;99.90;;;;;;5051774;28;20200;-82
2023/05/22 00:26:47;;;;;;;12.40;10.37;;;13.70;99.90;;;;;;5052626;28;20214;-82
2023/05/22 00:29:14;;;;;;;23.73;11.63;;;13.70;99.90;;;;;;5051649;28;20247;-83
2023/05/22 00:31:41;;;;;;;21.00;10.97;;;13.70;99.90;;;;;;5052733;28;20198;-82
2023/05/22 00:34:07;;;;;;;21.83;11.00;;;13.60;99.90;;;;;;5052732;28;20535;-82
2023/05/22 00:36:34;;;;;;;20.63;11.77;;;13.60;99.90;;;;;;5052415;28;20284;-83
2023/05/22 00:39:03;;;;;;;19.73;11.63;;;13.60;99.90;;;;;;5053753;28;20198;-82
2023/05/22 00:41:32;;;;;;;20.30;11.40;;;13.60;99.90;;;;;;5053435;28;20305;-83
2023/05/22 00:43:59;;;;;;;17.47;11.33;;;13.60;99.90;;;;;;5053753;28;20201;-81
2023/05/22 00:46:26;;;;;;;20.67;11.50;;;13.50;99.90;;;;;;5052806;28;20324;-82
2023/05/22 00:48:53;;;;;;;25.10;12.97;;;13.50;99.90;;;;;;5052782;28;20365;-81
2023/05/22 00:51:22;;;;;;;26.67;12.90;;;13.50;99.90;;;;;;5051866;28;20324;-81
2023/05/22 00:53:49;;;;;;;30.30;14.90;;;13.50;99.90;;;;;;5054511;28;20197;-82
2023/05/22 00:56:18;;;;;;;27.50;14.23;;;13.50;99.90;;;;;;5056636;28;20198;-82
2023/05/22 00:58:45;;;;;;;25.53;12.97;;;13.50;99.90;;;;;;5055480;28;20294;-81
2023/05/22 01:01:13;;;;;;;20.57;13.50;;;13.50;99.90;;;;;;5072916;28;20203;-83
2023/05/22 01:03:43;;;;;;;18.17;12.53;;;13.60;99.90;;;;;;5075790;28;20207;-82
2023/05/22 01:06:10;;;;;;;27.27;15.00;;;13.70;99.90;;;;;;5075470;28;20240;-82
2023/05/22 01:08:37;;;;;;;22.43;13.27;;;13.70;99.90;;;;;;5067016;28;20206;-82
2023/05/22 01:11:12;;;;;;;23.90;14.27;;;13.70;99.90;;;;;;5055697;28;20206;-82
2023/05/22 01:13:50;;;;;;;25.93;14.90;;;13.80;99.90;;;;;;5056058;28;20193;-81
2023/05/22 01:16:28;;;;;;;23.60;14.27;;;13.70;99.90;;;;;;5055857;28;20209;-81
2023/05/22 01:19:02;;;;;;;17.90;13.17;;;13.80;99.90;;;;;;5056047;28;20189;-81
2023/05/22 01:21:37;;;;;;;21.03;13.60;;;13.80;99.90;;;;;;5055986;28;20193;-82
2023/05/22 01:24:29;;;;;;;21.27;13.83;;;13.80;99.90;;;;;;5055651;28;20277;-81
2023/05/22 01:27:34;;;;;;;18.53;13.10;;;13.80;99.90;;;;;;5054801;28;20221;-82
2023/05/22 01:30:20;;;;;;;26.73;16.13;;;13.70;99.90;;;;;;5028757;28;20204;-82
2023/05/22 01:32:50;;;;;;;18.60;12.70;;;13.70;99.90;;;;;;5065307;28;20266;-82
2023/05/22 01:35:19;;;;;;;22.43;12.87;;;13.70;99.90;;;;;;5055522;28;20198;-83
2023/05/22 01:37:46;;;;;;;26.90;15.43;;;13.70;99.90;;;;;;5055327;28;20361;-81
2023/05/22 01:40:14;;;;;;;20.50;12.37;;;13.70;99.90;;;;;;5054815;28;20198;-82
2023/05/22 01:42:41;;;;;;;20.73;13.73;;;13.70;99.90;;;;;;5055477;28;20194;-81
2023/05/22 01:45:11;;;;;;;21.00;13.90;;;13.70;99.90;;;;;;5054892;28;20661;-82
2023/05/22 01:47:37;;;;;;;25.00;15.97;;;13.70;99.90;;;;;;5054736;28;20205;-83
2023/05/22 01:50:08;;;;;;;20.60;12.67;;;13.60;99.90;;;;;;5055418;28;20249;-82
2023/05/22 01:52:45;;;;;;;23.77;15.60;;;13.60;99.90;;;;;;5065495;28;20836;-83
2023/05/22 01:55:19;;;;;;;22.30;13.37;;;13.60;99.90;;;;;;5074263;28;20205;-82
2023/05/22 01:57:52;;;;;;;18.07;14.00;;;13.60;99.90;;;;;;5074852;28;20201;-82
2023/05/22 02:00:22;;;;;;;14.87;12.03;;;13.60;99.90;;;;;;5074961;28;20281;-81
2023/05/22 02:02:52;;;;;;;18.63;13.13;;;13.60;99.90;;;;;;5059300;28;20226;-82
2023/05/22 02:05:23;;;;;;;17.53;12.57;;;13.50;99.90;;;;;;5053822;28;20282;-82
2023/05/22 02:07:50;;;;;;;16.67;12.43;;;13.50;99.90;;;;;;5054413;28;20634;-82
2023/05/22 02:10:19;;;;;;;19.87;13.10;;;13.50;99.90;;;;;;5054657;28;20214;-81
2023/05/22 02:12:46;;;;;;;19.13;12.07;;;13.50;99.90;;;;;;5054762;28;20614;-82
2023/05/22 02:15:13;;;;;;;16.00;11.70;;;13.50;99.90;;;;;;5054308;28;20197;-82
2023/05/22 02:17:41;;;;;;;17.83;12.20;;;13.50;99.90;;;;;;5054562;28;20806;-82
2023/05/22 02:20:13;;;;;;;19.97;13.07;;;13.50;99.90;;;;;;5054652;28;20573;-82
2023/05/22 02:22:43;;;;;;;23.93;14.57;;;13.50;99.90;;;;;;5074471;28;20224;-82
2023/05/22 02:25:13;;;;;;;20.57;14.53;;;13.50;99.90;;;;;;5074410;28;20208;-82
2023/05/22 02:27:41;;;;;;;21.33;14.37;;;13.50;99.90;;;;;;5073974;28;20200;-81
2023/05/22 02:30:09;;;;;;;23.40;14.87;;;13.40;99.90;;;;;;5073645;28;20236;-81
2023/05/22 02:32:36;;;;;;;21.20;14.50;;;13.40;99.90;;;;;;5066123;28;20276;-82
2023/05/22 02:35:03;;;;;;;22.03;14.80;;;13.50;99.90;;;;;;5054253;28;20206;-81
2023/05/22 02:37:30;;;;;;;24.60;15.53;;;13.50;99.90;;;;;;5053485;28;20599;-82
2023/05/22 02:39:59;;;;;;;25.53;15.73;;;13.50;99.90;;;;;;5057594;28;20193;-79
2023/05/22 02:42:25;;;;;;;27.27;14.77;;;13.50;99.90;;;;;;5073956;28;20201;-80
2023/05/22 02:44:52;;;;;;;21.30;15.37;;;13.40;99.90;;;;;;5065848;28;20653;-80
2023/05/22 02:47:19;;;;;;;25.80;16.30;;;13.50;99.90;;;;;;5054225;28;20202;-80
2023/05/22 02:49:46;;;;;;;27.67;16.63;;;13.50;99.90;;;;;;5053417;28;20313;-80
2023/05/22 02:52:13;;;;;;;25.20;16.00;;;13.60;99.90;;;;;;5053893;28;20198;-82
2023/05/22 02:54:40;;;;;;;26.03;15.70;;;13.60;99.90;;;;;;5054103;28;20201;-82
2023/05/22 02:57:09;;;;;;;23.10;14.97;;;13.60;99.90;;;;;;5065364;28;20205;-82
2023/05/22 02:59:36;;;;;;;31.17;16.63;;;13.60;99.90;;;;;;5074037;28;20276;-82
2023/05/22 03:02:03;;;;;;;21.83;15.53;;;13.60;99.90;;;;;;5053473;28;20290;-84
2023/05/22 03:04:30;;;;;;;24.77;15.07;;;13.50;99.90;;;;;;5053305;28;20206;-83
2023/05/22 03:06:56;;;;;;;25.10;15.93;;;13.60;99.90;;;;;;5053646;28;20756;-82
2023/05/22 03:09:23;;;;;;;25.33;16.97;;;13.60;99.90;;;;;;5053143;28;20285;-82
2023/05/22 03:11:50;;;;;;;24.77;15.53;;;13.50;99.90;;;;;;5052783;28;20202;-81
2023/05/22 03:14:19;;;;;;;29.10;15.43;;;13.50;99.90;;;;;;5053108;28;20214;-80
2023/05/22 03:16:46;;;;;;;31.33;17.70;;;13.50;99.90;;;;;;5052323;28;20198;-82
2023/05/22 03:19:15;;;;;;;26.67;16.90;;;13.50;99.90;;;;;;5059384;28;20205;-81
2023/05/22 03:21:43;;;;;;;23.73;15.80;;;13.50;99.90;;;;;;5073661;28;20206;-82
2023/05/22 03:24:11;;;;;;;29.67;16.67;;;13.50;99.90;;;;;;5066488;28;20216;-81
2023/05/22 03:26:38;;;;;;;26.00;16.03;;;13.50;99.90;;;;;;5052887;28;20546;-82
2023/05/22 03:29:05;;;;;;;21.83;14.93;;;13.40;99.90;;;;;;5053923;28;20217;-81
2023/05/22 03:31:34;;;;;;;28.27;16.53;;;13.40;99.90;;;;;;5053264;28;20252;-82
2023/05/22 03:34:01;;;;;;;19.17;14.50;;;13.40;99.90;;;;;;5052708;28;20220;-83
2023/05/22 03:36:28;;;;;;;21.67;15.23;;;13.30;99.90;;;;;;5053251;28;20212;-82
2023/05/22 03:38:55;;;;;;;25.00;15.60;;;13.30;99.90;;;;;;5053653;28;20206;-83
2023/05/22 03:41:22;;;;;;;31.93;17.03;;;13.30;99.90;;;;;;5053283;28;20209;-82
2023/05/22 03:43:49;;;;;;;27.97;17.37;;;13.40;99.90;;;;;;5053014;28;20209;-83
2023/05/22 03:46:16;;;;;;;28.37;17.37;;;13.40;99.90;;;;;;5052432;28;20230;-82
2023/05/22 03:48:44;;;;;;;30.67;19.17;;;13.40;99.90;;;;;;5053220;28;20641;-82
2023/05/22 03:51:11;;;;;;;35.50;19.47;;;13.40;99.90;;;;;;5053031;28;20565;-82
2023/05/22 03:53:38;;;;;;;35.10;21.17;;;13.30;99.90;;;;;;5052425;28;20284;-83
2023/05/22 03:56:05;;;;;;;42.77;21.60;;;13.30;99.90;;;;;;5052953;28;20293;-84
2023/05/22 03:58:32;;;;;;;36.10;20.63;;;13.30;99.90;;;;;;5053091;28;20210;-82
2023/05/22 04:00:59;;;;;;;34.70;20.73;;;13.30;99.90;;;;;;5052138;28;20245;-83
2023/05/22 04:03:26;;;;;;;27.60;18.67;;;13.30;99.90;;;;;;5052956;28;20214;-82
2023/05/22 04:05:55;;;;;;;30.27;19.00;;;13.30;99.90;;;;;;5053077;28;20216;-82
2023/05/22 04:08:22;;;;;;;31.33;20.83;;;13.30;99.90;;;;;;5052802;28;20216;-82
2023/05/22 04:10:49;;;;;;;29.40;20.27;;;13.30;99.90;;;;;;5052632;28;20222;-82
2023/05/22 04:13:17;;;;;;;34.30;18.50;;;13.30;99.90;;;;;;5053536;28;20217;-83
2023/05/22 04:15:45;;;;;;;30.20;18.47;;;13.30;99.90;;;;;;5052155;28;20285;-82
2023/05/22 04:18:12;;;;;;;21.30;15.37;;;13.30;99.90;;;;;;5052649;28;20198;-82
2023/05/22 04:20:39;;;;;;;29.23;16.97;;;13.40;99.90;;;;;;5055773;28;20205;-83
2023/05/22 04:23:08;;;;;;;31.47;19.10;;;13.40;99.90;;;;;;5052392;28;20232;-83
2023/05/22 04:25:35;;;;;;;21.57;16.00;;;13.50;99.90;;;;;;5052837;28;20229;-83
2023/05/22 04:28:03;;;;;;;21.53;15.63;;;13.50;99.90;;;;;;5052117;28;20646;-82
2023/05/22 04:30:32;;;;;;;28.37;17.37;;;13.50;99.90;;;;;;5071577;28;20229;-82
2023/05/22 04:33:00;;;;;;;27.73;18.10;;;13.60;99.90;;;;;;5072753;28;20671;-82
2023/05/22 04:35:29;;;;;;;19.00;14.90;;;13.70;99.90;;;;;;5059916;28;20210;-83
2023/05/22 04:37:56;;;;;;;34.60;20.87;;;13.70;99.90;;;;;;5052368;28;20204;-83
2023/05/22 04:40:25;;;;;;;32.50;20.73;;;13.70;99.90;;;;;;5052755;28;20715;-82
2023/05/22 04:42:53;;;;;;;28.60;18.07;;;13.80;99.90;;;;;;5051982;28;20648;-82
2023/05/22 04:45:24;;;;;;;25.07;17.00;;;13.80;99.90;;;;;;5070199;28;20244;-83
2023/05/22 04:47:51;;;;;;;27.07;17.80;;;13.80;99.90;;;;;;5067563;28;20193;-83
2023/05/22 04:50:19;;;;;;;32.13;20.50;;;13.90;99.90;;;;;;5053037;28;20229;-82
2023/05/22 04:52:46;;;;;;;31.23;19.10;;;14.00;99.90;;;;;;5052406;28;20281;-83
2023/05/22 04:55:13;;;;;;;33.17;19.83;;;14.00;99.90;;;;;;5067424;28;20206;-83
2023/05/22 04:57:43;;;;;;;31.80;21.87;;;14.10;99.90;;;;;;5072036;28;20205;-82
2023/05/22 05:00:12;;;;;;;26.23;17.83;;;14.10;99.90;;;;;;5071302;28;20209;-83
2023/05/22 05:02:39;;;;;;;25.80;18.07;;;14.20;99.90;;;;;;5072439;28;20217;-80
2023/05/22 05:05:06;;;;;;;24.08;16.55;;;14.20;99.90;;;;;;5034967;28;20209;-80
2023/05/22 05:07:36;;;;;;;21.53;16.70;;;14.30;99.90;;;;;;5052162;28;20649;-81
2023/05/22 05:10:03;;;;;;;24.70;17.63;;;14.30;99.90;;;;;;5061182;28;20232;-81
2023/05/22 05:12:30;;;;;;;29.17;18.73;;;14.40;99.90;;;;;;5071962;28;20211;-80
2023/05/22 05:14:58;;;;;;;28.73;18.93;;;14.50;99.90;;;;;;5061974;28;20289;-82
2023/05/22 05:17:25;;;;;;;23.33;17.60;;;14.60;99.90;;;;;;5051810;28;20251;-81
2023/05/22 05:19:52;;;;;;;28.03;20.30;;;14.70;99.90;;;;;;5065708;28;20223;-81
2023/05/22 05:22:19;;;;;;;28.30;18.95;;;14.90;99.90;;;;;;5072651;28;20207;-81
2023/05/22 05:24:45;;;;;;;31.70;18.30;;;14.90;99.90;;;;;;5070076;28;20280;-81
2023/05/22 05:27:12;;;;;;;25.67;18.08;;;15.00;99.90;;;;;;5052320;28;20208;-81
2023/05/22 05:29:40;;;;;;;24.23;16.83;;;15.10;99.90;;;;;;5053014;28;20296;-82
2023/05/22 05:32:08;;;;;;;30.10;20.60;;;15.10;99.90;;;;;;5052107;28;20279;-82
2023/05/22 05:34:35;;;;;;;25.00;16.95;;;15.20;99.90;;;;;;5052886;28;20202;-82
2023/05/22 05:37:02;;;;;;;22.75;16.40;;;15.20;99.90;;;;;;5052432;28;20202;-83
2023/05/22 05:39:29;;;;;;;22.87;17.23;;;15.20;99.90;;;;;;5052159;28;20210;-81
2023/05/22 05:41:56;;;;;;;22.38;17.25;;;15.30;99.90;;;;;;5055799;28;20202;-82
2023/05/22 05:44:23;;;;;;;24.58;17.15;;;15.30;99.90;;;;;;5056029;28;20202;-83
2023/05/22 05:46:51;;;;;;;30.35;20.75;;;15.30;99.90;;;;;;5055192;28;20518;-83
2023/05/22 05:49:20;;;;;;;32.60;22.08;;;15.40;99.90;;;;;;5055729;28;20225;-83
2023/05/22 05:51:49;;;;;;;32.95;20.85;;;15.60;99.90;;;;;;5044225;28;20624;-82
2023/05/22 05:54:16;;;;;;;33.70;20.75;;;15.90;99.90;;;;;;5065902;28;20579;-82
2023/05/22 05:56:43;;;;;;;31.25;22.05;;;16.20;99.90;;;;;;5066241;28;20197;-83
2023/05/22 05:59:09;;;;;;;26.15;19.25;;;16.40;99.90;;;;;;5074764;28;20221;-83
2023/05/22 06:01:38;;;;;;;29.33;19.75;;;16.70;99.90;;;;;;5061266;28;20806;-83
2023/05/22 06:04:07;;;;;;;24.52;18.63;;;17.10;99.90;;;;;;5069992;28;20210;-85
2023/05/22 06:06:36;;;;;;;22.85;18.00;;;17.20;99.90;;;;;;5068866;28;20612;-80
2023/05/22 06:09:05;;;;;;;24.10;18.63;;;17.10;99.90;;;;;;5072541;28;20196;-83
2023/05/22 06:11:31;;;;;;;25.73;16.10;;;16.90;99.90;;;;;;5054684;28;20222;-82
2023/05/22 06:13:59;;;;;;;26.95;18.42;;;17.00;99.90;;;;;;5054910;28;20492;-82
2023/05/22 06:16:27;;;;;;;21.10;16.75;;;17.10;99.90;;;;;;5074650;28;20193;-82
2023/05/22 06:18:55;;;;;;;23.80;17.05;;;17.40;99.90;;;;;;5074466;28;20639;-81
2023/05/22 06:21:23;;;;;;;24.92;16.80;;;17.70;99.90;;;;;;5059676;28;20204;-82
2023/05/22 06:23:51;;;;;;;19.00;15.23;;;17.80;99.90;;;;;;5054586;28;20201;-82
2023/05/22 06:26:18;;;;;;;24.25;17.27;;;17.90;99.90;;;;;;5054336;28;20217;-83
2023/05/22 06:28:45;;;;;;;29.00;17.80;;;18.10;99.90;;;;;;5053377;28;20209;-80
2023/05/22 06:31:13;;;;;;;22.35;15.43;;;18.30;99.90;;;;;;5054135;28;20233;-80
2023/05/22 06:33:41;;;;;;;26.52;16.55;;;18.60;99.90;;;;;;5054611;28;20300;-80
2023/05/22 06:36:10;;;;;;;21.13;14.98;;;18.90;99.90;;;;;;5054069;28;20213;-77
2023/05/22 06:38:38;;;;;;;21.00;16.17;;;19.30;99.90;;;;;;5054535;28;20198;-81
2023/05/22 06:41:06;;;;;;;21.15;14.48;;;19.60;99.90;;;;;;5054534;28;20206;-80
2023/05/22 06:43:33;;;;;;;17.77;14.50;;;20.00;99.90;;;;;;5053869;28;20251;-81
2023/05/22 06:46:00;;;;;;;21.00;15.50;;;20.30;99.90;;;;;;5055390;28;20253;-83
2023/05/22 06:48:27;;;;;;;16.02;13.35;;;20.60;99.90;;;;;;5074036;28;20189;-82
2023/05/22 06:50:54;;;;;;;22.30;16.33;;;20.70;99.90;;;;;;5073656;28;20222;-84
2023/05/22 06:53:22;;;;;;;16.38;13.93;;;20.50;99.90;;;;;;5054749;28;20576;-83
2023/05/22 06:55:49;;;;;;;16.00;13.30;;;20.60;99.90;;;;;;5053415;28;20237;-82
2023/05/22 06:58:18;;;;;;;17.35;13.05;;;20.70;99.90;;;;;;5053620;28;20512;-81
2023/05/22 07:00:45;;;;;;;21.00;15.82;;;20.80;99.90;;;;;;5061384;28;20198;-81
2023/05/22 07:03:12;;;;;;;20.02;14.15;;;20.90;99.90;;;;;;5073742;28;20316;-81
2023/05/22 07:05:38;;;;;;;21.20;15.25;;;21.00;99.90;;;;;;5065740;28;20292;-81
2023/05/22 07:08:07;;;;;;;21.25;14.85;;;21.30;99.90;;;;;;5052827;28;20204;-79
2023/05/22 07:10:33;;;;;;;18.83;15.35;;;21.40;99.90;;;;;;5061969;28;20211;-82
2023/05/22 07:13:00;;;;;;;16.92;14.02;;;21.70;99.90;;;;;;5072938;28;20481;-80
2023/05/22 07:15:29;;;;;;;20.63;15.68;;;21.60;99.90;;;;;;5072581;28;20401;-81
2023/05/22 07:17:55;;;;;;;22.02;15.88;;;21.30;99.90;;;;;;5058199;28;20506;-80
2023/05/22 07:20:24;;;;;;;18.42;15.10;;;21.30;99.90;;;;;;5053655;28;20527;-80
2023/05/22 07:22:51;;;;;;;16.77;14.27;;;21.20;99.90;;;;;;5053813;28;20201;-80
2023/05/22 07:25:18;;;;;;;23.15;14.98;;;21.30;99.90;;;;;;5053112;28;20212;-81
2023/05/22 07:27:45;;;;;;;22.15;14.77;;;21.50;99.90;;;;;;5054087;28;20512;-81
2023/05/22 07:30:12;;;;;;;18.98;14.70;;;21.50;99.90;;;;;;5064613;28;20282;-80
2023/05/22 07:32:41;;;;;;;17.27;12.75;;;21.70;99.90;;;;;;5072977;28;20577;-81
2023/05/22 07:35:09;;;;;;;20.55;13.52;;;21.80;99.90;;;;;;5073468;28;20208;-82
2023/05/22 07:37:37;;;;;;;16.55;11.70;;;22.00;99.90;;;;;;5072814;28;20196;-80
2023/05/22 07:40:05;;;;;;;18.70;11.63;;;21.90;99.90;;;;;;5073479;28;20201;-81
2023/05/22 07:42:32;;;;;;;12.23;10.30;;;21.80;99.90;;;;;;5073322;28;20204;-82
2023/05/22 07:44:59;;;;;;;12.20;9.80;;;21.80;99.90;;;;;;5072431;28;20197;-84
2023/05/22 07:47:26;;;;;;;16.05;10.00;;;22.00;99.90;;;;;;5067428;28;20300;-87
2023/05/22 07:49:54;;;;;;;12.48;10.43;;;22.10;99.90;;;;;;5052604;28;20202;-83
2023/05/22 07:52:22;;;;;;;14.98;10.85;;;22.20;99.90;;;;;;5052456;28;20222;-80
2023/05/22 07:54:49;;;;;;;11.68;9.75;;;22.20;99.90;;;;;;5053334;28;20200;-86
2023/05/22 07:57:16;;;;;;;14.70;9.93;;;22.40;99.90;;;;;;5053312;28;20519;-79
2023/05/22 07:59:44;;;;;;;13.80;8.98;;;22.40;99.90;;;;;;5052215;28;20194;-80
2023/05/22 08:02:11;;;;;;;17.05;9.38;;;22.30;99.90;;;;;;5052924;28;20965;-81
2023/05/22 08:04:38;;;;;;;13.38;8.90;;;22.50;99.90;;;;;;5052199;28;20197;-81
2023/05/22 08:07:06;;;;;;;12.73;9.70;;;22.50;99.90;;;;;;5052007;28;20301;-83
2023/05/22 08:09:33;;;;;;;12.02;7.80;;;22.90;99.90;;;;;;5052783;28;20288;-79
2023/05/22 08:12:00;;;;;;;13.30;8.13;;;23.00;99.90;;;;;;5052108;28;20305;-82
2023/05/22 08:14:27;;;;;;;10.18;7.97;;;23.20;99.90;;;;;;5051377;28;20205;-80
2023/05/22 08:16:55;;;;;;;11.32;8.68;;;23.40;99.90;;;;;;5052697;28;20201;-82
2023/05/22 08:19:22;;;;;;;11.85;8.05;;;23.40;99.90;;;;;;5052669;28;20729;-79
2023/05/22 08:21:51;;;;;;;12.20;8.80;;;23.30;99.90;;;;;;5052055;28;20219;-81
2023/05/22 08:24:21;;;;;;;10.80;7.97;;;23.30;99.90;;;;;;5069087;28;20209;-78
2023/05/22 08:26:48;;;;;;;8.13;7.35;;;23.40;99.90;;;;;;5072591;28;20228;-82
2023/05/22 08:29:14;;;;;;;11.05;8.07;;;23.50;99.90;;;;;;5054411;28;20663;-82
2023/05/22 08:31:41;;;;;;;9.00;7.38;;;23.70;99.90;;;;;;5052290;28;20232;-82
2023/05/22 08:34:09;;;;;;;12.25;8.18;;;24.00;99.90;;;;;;5051779;28;20485;-79
2023/05/22 08:36:36;;;;;;;8.75;7.20;;;24.20;99.90;;;;;;5051619;28;20201;-78
2023/05/22 08:39:03;;;;;;;10.20;7.85;;;24.30;99.90;;;;;;5052571;28;20229;-79
2023/05/22 08:41:31;;;;;;;12.05;7.43;;;24.10;99.90;;;;;;5057688;28;20197;-80
2023/05/22 08:43:58;;;;;;;10.20;7.43;;;24.20;99.90;;;;;;5053938;28;20197;-80
2023/05/22 08:46:27;;;;;;;10.18;7.80;;;24.30;99.90;;;;;;5055131;28;20265;-81
2023/05/22 08:48:56;;;;;;;11.55;7.78;;;24.70;99.90;;;;;;5034533;28;20194;-80
2023/05/22 08:51:27;;;;;;;13.00;6.53;;;25.00;99.90;;;;;;5051964;28;20226;-79
2023/05/22 08:53:56;;;;;;;10.93;8.32;;;25.10;99.90;;;;;;5052137;28;20613;-80
2023/05/22 08:56:24;;;;;;;9.23;6.88;;;25.30;99.90;;;;;;5052001;28;20193;-81
2023/05/22 08:58:53;;;;;;;9.73;7.25;;;25.40;99.90;;;;;;5051941;28;20206;-80
2023/05/22 09:01:21;;;;;;;9.27;7.03;;;25.70;99.90;;;;;;5055477;28;20313;-83
2023/05/22 09:03:50;;;;;;;8.38;7.25;;;25.80;99.90;;;;;;5056209;28;20292;-78
2023/05/22 09:06:17;;;;;;;9.07;7.53;;;26.00;99.90;;;;;;5065356;28;20198;-81
2023/05/22 09:08:44;;;;;;;10.50;7.22;;;26.10;99.90;;;;;;5052582;28;20206;-78
2023/05/22 09:11:12;;;;;;;8.77;7.82;;;26.10;99.90;;;;;;5051176;28;20791;-79
2023/05/22 09:13:39;;;;;;;10.68;7.85;;;25.90;99.90;;;;;;5051826;28;20213;-81
2023/05/22 09:16:10;;;;;;;9.27;7.65;;;26.00;99.90;;;;;;5072946;28;20201;-79
2023/05/22 09:18:37;;;;;;;9.23;8.00;;;25.90;99.90;;;;;;5063266;28;20213;-81
2023/05/22 09:21:06;;;;;;;9.43;7.97;;;25.70;99.90;;;;;;5054880;28;20212;-82
2023/05/22 09:23:33;;;;;;;8.38;7.55;;;25.70;99.90;;;;;;5066846;28;20738;-80
2023/05/22 09:26:02;;;;;;;9.73;7.30;;;26.00;99.90;;;;;;5073662;28;20602;-80
2023/05/22 09:28:33;;;;;;;8.50;7.57;;;26.00;99.90;;;;;;5055100;28;20212;-79
2023/05/22 09:31:02;;;;;;;8.60;7.00;;;26.00;99.90;;;;;;5054671;28;20586;-81
2023/05/22 09:33:31;;;;;;;7.55;6.85;;;25.90;99.90;;;;;;5054878;28;20283;-81
2023/05/22 09:35:58;;;;;;;8.05;7.25;;;26.10;99.90;;;;;;5054574;28;20202;-82
2023/05/22 09:38:28;;;;;;;10.50;7.60;;;26.00;99.90;;;;;;5053652;28;20186;-82
2023/05/22 09:40:55;;;;;;;8.35;7.55;;;26.00;99.90;;;;;;5054323;28;20524;-80
2023/05/22 09:43:24;;;;;;;8.85;7.82;;;25.80;99.90;;;;;;5054885;28;20293;-81
2023/05/22 09:45:56;;;;;;;8.73;7.20;;;25.70;99.90;;;;;;5053726;28;20328;-80
2023/05/22 09:48:23;;;;;;;10.93;8.27;;;26.00;99.90;;;;;;5055358;28;20198;-79
2023/05/22 09:50:54;;;;;;;10.98;7.78;;;26.30;99.90;;;;;;5055131;28;20198;-80
2023/05/22 09:53:25;;;;;;;9.85;8.85;;;26.60;99.90;;;;;;5067932;28;20669;-80
2023/05/22 09:55:55;;;;;;;8.95;8.00;;;27.00;99.90;;;;;;5069042;28;20634;-81
2023/05/22 09:58:26;;;;;;;10.13;8.73;;;27.20;99.90;;;;;;5054788;28;20297;-79
2023/05/22 10:00:55;;;;;;;10.38;8.23;;;27.20;99.90;;;;;;5056784;28;20224;-81
2023/05/22 10:03:25;;;;;;;11.07;9.50;;;27.10;99.90;;;;;;5075223;28;20806;-87
2023/05/22 10:05:55;;;;;;;11.93;8.27;;;27.30;99.90;;;;;;5072252;28;20493;-80
2023/05/22 10:08:24;;;;;;;12.07;10.23;;;27.20;99.90;;;;;;5074915;28;20677;-82
2023/05/22 10:10:52;;;;;;;10.48;9.00;;;27.10;99.90;;;;;;5074722;28;20201;-83
2023/05/22 10:13:20;;;;;;;8.68;7.78;;;26.80;99.90;;;;;;5066732;28;20228;-83
2023/05/22 10:15:48;;;;;;;10.52;9.27;;;26.90;99.90;;;;;;5073252;28;20209;-80
2023/05/22 10:18:16;;;;;;;11.27;8.38;;;26.60;99.90;;;;;;5073936;28;20206;-79
2023/05/22 10:20:45;;;;;;;12.35;9.25;;;26.50;99.90;;;;;;5073927;28;20215;-84
2023/05/22 10:23:15;;;;;;;10.20;7.90;;;26.80;99.90;;;;;;5072564;28;20209;-81
2023/05/22 10:25:42;;;;;;;7.75;6.80;;;26.90;99.90;;;;;;5072370;28;20287;-83
2023/05/22 10:28:10;;;;;;;11.98;9.07;;;27.20;99.90;;;;;;5053202;28;20224;-82
2023/05/22 10:30:58;;;;;;;10.52;8.40;;;27.60;99.90;;;;;;5053959;28;20256;-80
2023/05/22 10:33:29;;;;;;;13.10;7.82;;;27.50;99.90;;;;;;5065609;28;20232;-83
2023/05/22 10:35:59;;;;;;;9.90;8.02;;;27.50;99.90;;;;;;5072717;28;20220;-81
2023/05/22 10:38:52;;;;;;;16.17;9.38;;;27.40;99.90;;;;;;5073804;28;20216;-81
2023/05/22 10:41:19;;;;;;;10.20;7.43;;;27.10;99.90;;;;;;5066136;28;20213;-82
2023/05/22 10:43:49;;;;;;;12.32;8.68;;;27.20;99.90;;;;;;5052890;28;20209;-82
2023/05/22 10:46:16;;;;;;;8.27;7.50;;;27.50;99.90;;;;;;5053368;28;20263;-81
2023/05/22 10:48:46;;;;;;;7.70;6.97;;;27.40;99.90;;;;;;5052608;28;20198;-82
2023/05/22 10:51:13;;;;;;;11.43;8.80;;;27.70;99.90;;;;;;5053566;28;20209;-83
2023/05/22 10:53:43;;;;;;;10.70;8.93;;;27.70;99.90;;;;;;5053512;28;20222;-80
2023/05/22 10:56:13;;;;;;;11.43;8.27;;;27.60;99.90;;;;;;5053597;28;20202;-81
2023/05/22 10:58:42;;;;;;;10.52;8.50;;;27.60;99.90;;;;;;5053380;28;20208;-81
2023/05/22 11:01:11;;;;;;;11.70;8.45;;;27.70;99.90;;;;;;5061526;28;20205;-83
2023/05/22 11:03:55;;;;;;;12.85;7.30;;;27.80;99.90;;;;;;5072936;28;20247;-82
2023/05/22 11:06:36;;;;;;;10.15;7.50;;;27.90;99.90;;;;;;5072913;28;20225;-82
2023/05/22 11:09:29;;;;;;;13.82;7.30;;;27.80;99.90;;;;;;5073523;28;20185;-82
2023/05/22 11:12:17;;;;;;;12.20;6.53;;;27.60;99.90;;;;;;5069019;28;20194;-80
2023/05/22 11:14:49;;;;;;;9.65;6.22;;;27.80;99.90;;;;;;5054282;28;20205;-83
2023/05/22 11:17:18;;;;;;;12.02;7.10;;;27.90;99.90;;;;;;5053569;28;20255;-83
2023/05/22 11:19:58;;;;;;;12.60;6.65;;;28.00;99.90;;;;;;5054029;28;20217;-82
2023/05/22 11:22:33;;;;;;;11.00;7.22;;;28.10;99.90;;;;;;5053330;28;20182;-86
2023/05/22 11:25:05;;;;;;;12.15;6.68;;;28.10;99.90;;;;;;5053301;28;20201;-83
2023/05/22 11:27:32;;;;;;;11.35;6.18;;;28.00;99.90;;;;;;5052846;28;20194;-84
2023/05/22 11:30:00;;;;;;;12.32;6.88;;;27.90;99.90;;;;;;5052965;28;20190;-82
2023/05/22 11:32:27;;;;;;;9.82;5.65;;;27.60;99.90;;;;;;5051720;28;20257;-81
2023/05/22 11:34:57;;;;;;;9.93;6.82;;;27.40;99.90;;;;;;5053001;28;20198;-79
2023/05/22 11:37:24;;;;;;;10.25;7.35;;;27.40;99.90;;;;;;5052358;28;20237;-82
2023/05/22 11:39:51;;;;;;;20.35;16.02;;;27.50;99.90;;;;;;5051985;28;20545;-82
2023/05/22 11:42:20;;;;;;;15.02;10.15;;;27.40;99.90;;;;;;5052129;28;20198;-81
2023/05/22 11:44:47;;;;;;;12.25;7.43;;;27.30;99.90;;;;;;5051853;28;20202;-80
2023/05/22 11:47:14;;;;;;;11.30;6.65;;;27.30;99.90;;;;;;5051784;28;20220;-80
2023/05/22 11:49:42;;;;;;;9.00;5.93;;;27.30;99.90;;;;;;5069116;28;20208;-84
2023/05/22 11:52:09;;;;;;;10.60;6.22;;;27.40;99.90;;;;;;5071184;28;20205;-83
2023/05/22 11:54:36;;;;;;;9.30;6.32;;;27.60;99.90;;;;;;5071233;28;20215;-81
2023/05/22 11:57:05;;;;;;;9.27;6.03;;;27.70;99.90;;;;;;5073066;28;20204;-81
2023/05/22 11:59:33;;;;;;;12.38;6.63;;;27.80;99.90;;;;;;5061478;28;20297;-82
2023/05/22 12:02:00;;;;;;;10.63;6.68;;;27.80;99.90;;;;;;5052734;28;20226;-82
2023/05/22 12:04:27;;;;;;;10.68;6.88;;;27.80;99.90;;;;;;5068610;28;20609;-83
2023/05/22 12:06:54;;;;;;;13.07;6.88;;;27.70;99.90;;;;;;5071936;28;20217;-81
2023/05/22 12:09:22;;;;;;;15.05;7.07;;;27.60;99.90;;;;;;5072667;28;20205;-83
2023/05/22 12:11:49;;;;;;;15.30;7.65;;;27.40;99.90;;;;;;5056411;28;20217;-80
2023/05/22 12:14:16;;;;;;;9.85;6.35;;;27.10;99.90;;;;;;5065013;28;20658;-81
2023/05/22 12:16:44;;;;;;;11.65;6.00;;;26.80;99.90;;;;;;5072465;28;20193;-84
2023/05/22 12:19:12;;;;;;;10.52;6.93;;;26.60;99.90;;;;;;5055217;28;20292;-81
2023/05/22 12:21:40;;;;;;;12.70;7.07;;;26.60;99.90;;;;;;5051735;28;20202;-81
2023/05/22 12:24:08;;;;;;;12.65;6.80;;;26.60;99.90;;;;;;5051113;28;20759;-83
2023/05/22 12:26:36;;;;;;;12.00;6.68;;;26.70;99.90;;;;;;5051444;28;20213;-80
2023/05/22 12:29:04;;;;;;;10.20;6.28;;;26.70;99.90;;;;;;5051295;28;20233;-80
2023/05/22 12:31:37;;;;;;;8.00;5.45;;;26.70;99.90;;;;;;5051456;28;20289;-81
2023/05/22 12:34:07;;;;;;;6.50;5.82;;;26.70;99.90;;;;;;5050665;28;20264;-83
2023/05/22 12:36:35;;;;;;;7.70;6.47;;;26.70;99.90;;;;;;5062231;28;20213;-80
2023/05/22 12:39:06;;;;;;;8.90;5.85;;;26.60;99.90;;;;;;5065862;28;20269;-82